Time;durP1;ratioP1;P1;durP2;ratioP2;P2;SDS_P1;SDS_P2;PMS_P1;PMS_P2;Temp;Humidity;BMP_temperature;BMP_pressure;BME280_temperature;BME280_humidity;BME280_pressure;Samples;Min_cycle;Max_cycle;Signal;HPM_P1;HPM_P2
2023/10/05 00:01:27;;;;;;;7.90;6.60;;;6.00;99.90;;;;;;5075074;28;20230;-68
2023/10/05 00:03:54;;;;;;;10.03;6.77;;;6.00;99.90;;;;;;5074901;28;20204;-68
2023/10/05 00:06:24;;;;;;;8.97;7.37;;;6.00;99.90;;;;;;5074764;28;20197;-68
2023/10/05 00:08:53;;;;;;;9.63;7.50;;;6.10;99.90;;;;;;5075192;28;20223;-68
2023/10/05 00:11:24;;;;;;;8.77;6.97;;;6.10;99.90;;;;;;5075042;28;20204;-68
2023/10/05 00:13:52;;;;;;;8.37;7.20;;;6.10;99.90;;;;;;5074852;28;20211;-68
2023/10/05 00:16:21;;;;;;;9.77;6.87;;;5.90;99.90;;;;;;5074727;28;20205;-69
2023/10/05 00:18:49;;;;;;;8.03;7.13;;;5.90;99.90;;;;;;5074584;28;20285;-68
2023/10/05 00:21:19;;;;;;;7.50;6.43;;;5.90;99.90;;;;;;5073899;28;20289;-68
2023/10/05 00:23:52;;;;;;;8.30;6.60;;;5.80;99.90;;;;;;5074685;28;20199;-68
2023/10/05 00:26:23;;;;;;;9.67;6.90;;;5.70;99.90;;;;;;5074645;28;20292;-68
2023/10/05 00:29:01;;;;;;;7.83;6.90;;;5.60;99.90;;;;;;5074484;28;20254;-68
2023/10/05 00:31:28;;;;;;;9.63;6.70;;;5.60;99.90;;;;;;5074290;28;20274;-68
2023/10/05 00:33:56;;;;;;;8.87;6.60;;;5.70;99.90;;;;;;5074307;28;20560;-68
2023/10/05 00:36:26;;;;;;;9.27;6.83;;;5.60;99.90;;;;;;5074331;28;20197;-68
2023/10/05 00:38:52;;;;;;;6.70;6.00;;;5.60;99.90;;;;;;5074064;28;20656;-68
2023/10/05 00:41:19;;;;;;;8.03;6.50;;;5.70;99.90;;;;;;5074014;28;20696;-68
2023/10/05 00:43:46;;;;;;;7.90;6.63;;;5.80;99.90;;;;;;5074032;28;20194;-68
2023/10/05 00:46:13;;;;;;;6.87;6.17;;;5.70;99.90;;;;;;5074188;28;20197;-68
2023/10/05 00:48:54;;;;;;;8.07;6.70;;;5.60;99.90;;;;;;5074132;28;20611;-68
2023/10/05 00:51:30;;;;;;;10.83;6.40;;;5.60;99.90;;;;;;5074092;28;20228;-68
2023/10/05 00:54:03;;;;;;;8.17;6.70;;;5.70;99.90;;;;;;5073988;28;20196;-68
2023/10/05 00:56:34;;;;;;;7.53;6.73;;;5.60;99.90;;;;;;5073858;28;20198;-69
2023/10/05 00:59:06;;;;;;;7.97;7.07;;;5.50;99.90;;;;;;5073908;28;20200;-68
2023/10/05 01:01:50;;;;;;;7.57;6.30;;;5.50;99.90;;;;;;5073939;28;20224;-68
2023/10/05 01:04:23;;;;;;;11.67;6.60;;;5.50;99.90;;;;;;5073764;28;20204;-68
2023/10/05 01:06:56;;;;;;;9.57;7.07;;;5.50;99.90;;;;;;5073700;28;20204;-69
2023/10/05 01:09:40;;;;;;;11.90;7.70;;;5.40;99.90;;;;;;5073675;28;20225;-68
2023/10/05 01:12:20;;;;;;;12.37;7.30;;;5.40;99.90;;;;;;5073709;28;20556;-68
2023/10/05 01:14:51;;;;;;;9.37;7.27;;;5.40;99.90;;;;;;5077916;28;20196;-68
2023/10/05 01:17:20;;;;;;;11.80;7.77;;;5.40;99.90;;;;;;5074227;28;20331;-68
2023/10/05 01:19:50;;;;;;;10.20;7.40;;;5.40;99.90;;;;;;5073397;28;20675;-68
2023/10/05 01:22:20;;;;;;;12.83;7.40;;;5.40;99.90;;;;;;5073478;28;20209;-68
2023/10/05 01:24:48;;;;;;;13.87;7.60;;;5.60;99.90;;;;;;5073584;28;20671;-68
2023/10/05 01:27:15;;;;;;;10.60;7.60;;;5.60;99.90;;;;;;5073194;28;20274;-68
2023/10/05 01:29:43;;;;;;;9.77;7.33;;;5.50;99.90;;;;;;5073305;28;20221;-68
2023/10/05 01:32:10;;;;;;;11.13;8.00;;;5.50;99.90;;;;;;5073090;28;20551;-68
2023/10/05 01:34:37;;;;;;;10.80;7.80;;;5.50;99.90;;;;;;5073328;28;20602;-68
2023/10/05 01:37:05;;;;;;;11.10;7.53;;;5.50;99.90;;;;;;5073380;28;20245;-68
2023/10/05 01:39:35;;;;;;;8.87;7.20;;;5.40;99.90;;;;;;5073000;28;20660;-68
2023/10/05 01:42:05;;;;;;;9.13;7.10;;;5.40;99.90;;;;;;5072873;28;20735;-68
2023/10/05 01:44:35;;;;;;;11.37;7.30;;;5.50;99.90;;;;;;5073176;28;20212;-69
2023/10/05 01:47:02;;;;;;;10.07;7.27;;;5.40;99.90;;;;;;5073141;28;20258;-69
2023/10/05 01:49:29;;;;;;;12.27;7.37;;;5.40;99.90;;;;;;5072951;28;20232;-68
2023/10/05 01:51:57;;;;;;;9.43;7.43;;;5.40;99.90;;;;;;5072993;28;20201;-69
2023/10/05 01:54:28;;;;;;;9.47;6.47;;;5.40;99.90;;;;;;5072792;28;20272;-68
2023/10/05 01:56:56;;;;;;;7.23;6.53;;;5.30;99.90;;;;;;5072795;28;20223;-68
2023/10/05 01:59:24;;;;;;;7.67;6.87;;;5.30;99.90;;;;;;5072827;28;20282;-69
2023/10/05 02:01:53;;;;;;;8.93;6.70;;;5.50;99.90;;;;;;5072838;28;20201;-68
2023/10/05 02:04:22;;;;;;;8.30;6.63;;;5.50;99.90;;;;;;5072857;28;20679;-68
2023/10/05 02:06:49;;;;;;;7.37;6.67;;;5.50;99.90;;;;;;5073174;28;20201;-68
2023/10/05 02:09:20;;;;;;;8.20;7.33;;;5.50;99.90;;;;;;5072599;28;20216;-68
2023/10/05 02:11:47;;;;;;;9.50;7.50;;;5.60;99.90;;;;;;5072970;28;20197;-70
2023/10/05 02:14:16;;;;;;;10.40;7.47;;;5.60;99.90;;;;;;5072803;28;20212;-69
2023/10/05 02:16:48;;;;;;;17.57;8.33;;;5.60;99.90;;;;;;5072765;28;20192;-69
2023/10/05 02:19:16;;;;;;;15.50;8.50;;;5.70;99.90;;;;;;5072798;28;20287;-69
2023/10/05 02:21:45;;;;;;;13.63;8.37;;;5.70;99.90;;;;;;5072578;28;20556;-69
2023/10/05 02:24:15;;;;;;;12.10;9.23;;;5.70;99.90;;;;;;5072731;28;20649;-69
2023/10/05 02:26:54;;;;;;;11.23;9.57;;;5.70;99.90;;;;;;5072725;28;20200;-68
2023/10/05 02:29:23;;;;;;;11.87;9.20;;;5.70;99.90;;;;;;5072545;28;20244;-68
2023/10/05 02:31:58;;;;;;;10.00;9.00;;;5.80;99.90;;;;;;5072527;28;20229;-68
2023/10/05 02:34:27;;;;;;;11.40;9.37;;;5.70;99.90;;;;;;5072462;28;20235;-68
2023/10/05 02:36:54;;;;;;;12.57;9.80;;;5.80;99.90;;;;;;5072623;28;20207;-68
2023/10/05 02:39:22;;;;;;;11.70;9.13;;;5.60;99.90;;;;;;5072443;28;20293;-68
2023/10/05 02:41:50;;;;;;;14.47;9.70;;;5.70;99.90;;;;;;5072324;28;20630;-68
2023/10/05 02:44:19;;;;;;;10.57;8.70;;;5.70;99.90;;;;;;5073051;28;20648;-70
2023/10/05 02:46:47;;;;;;;14.13;9.93;;;5.60;99.90;;;;;;5076688;28;20193;-68
2023/10/05 02:49:16;;;;;;;14.27;11.00;;;5.70;99.90;;;;;;5076589;28;20208;-68
2023/10/05 02:51:43;;;;;;;14.47;10.67;;;5.70;99.90;;;;;;5076430;28;20220;-69
2023/10/05 02:54:10;;;;;;;13.73;10.27;;;5.70;99.90;;;;;;5076326;28;20287;-68
2023/10/05 02:56:40;;;;;;;14.60;11.07;;;5.80;99.90;;;;;;5076306;28;20598;-68
2023/10/05 02:59:10;;;;;;;11.37;10.10;;;5.70;99.90;;;;;;5076101;28;20204;-69
2023/10/05 03:01:37;;;;;;;14.47;10.33;;;5.70;99.90;;;;;;5076395;28;20197;-68
2023/10/05 03:04:09;;;;;;;16.03;10.20;;;5.70;99.90;;;;;;5076450;28;20197;-68
2023/10/05 03:06:39;;;;;;;10.77;8.10;;;5.60;99.90;;;;;;5076054;28;20203;-68
2023/10/05 03:09:08;;;;;;;9.67;8.03;;;5.70;99.90;;;;;;5076064;28;20215;-68
2023/10/05 03:11:38;;;;;;;9.87;7.47;;;5.60;99.90;;;;;;5075929;28;20199;-69
2023/10/05 03:14:05;;;;;;;9.07;7.63;;;5.60;99.90;;;;;;5075853;28;20287;-68
2023/10/05 03:16:35;;;;;;;13.20;7.97;;;5.60;99.90;;;;;;5075735;28;20660;-69
2023/10/05 03:19:02;;;;;;;11.13;8.30;;;5.60;99.90;;;;;;5075818;28;20208;-69
2023/10/05 03:21:29;;;;;;;9.10;8.20;;;5.80;99.90;;;;;;5075665;28;20734;-69
2023/10/05 03:23:58;;;;;;;9.47;7.80;;;5.70;99.90;;;;;;5075628;28;20659;-69
2023/10/05 03:26:25;;;;;;;8.87;7.97;;;5.70;99.90;;;;;;5075467;28;20247;-69
2023/10/05 03:28:51;;;;;;;11.23;7.90;;;5.70;99.90;;;;;;5075840;28;20201;-70
2023/10/05 03:31:24;;;;;;;11.60;7.83;;;5.70;99.90;;;;;;5075675;28;20255;-67
2023/10/05 03:33:52;;;;;;;11.27;8.10;;;5.70;99.90;;;;;;5075759;28;20197;-69
2023/10/05 03:36:19;;;;;;;10.67;8.20;;;5.70;99.90;;;;;;5075412;28;20755;-69
2023/10/05 03:38:55;;;;;;;9.90;8.83;;;5.70;99.90;;;;;;5075171;28;20240;-68
2023/10/05 03:41:26;;;;;;;10.70;8.53;;;5.80;99.90;;;;;;5075389;28;20271;-69
2023/10/05 03:43:53;;;;;;;9.17;7.63;;;6.00;99.90;;;;;;5075466;28;20296;-68
2023/10/05 03:46:20;;;;;;;11.13;7.50;;;5.90;99.90;;;;;;5075381;28;20197;-68
2023/10/05 03:48:46;;;;;;;14.70;9.83;;;5.80;99.90;;;;;;5075251;28;20288;-69
2023/10/05 03:51:15;;;;;;;11.43;9.17;;;5.90;99.90;;;;;;5075073;28;20228;-69
2023/10/05 03:53:48;;;;;;;10.27;8.63;;;5.90;99.90;;;;;;5075377;28;20284;-68
2023/10/05 03:56:17;;;;;;;14.67;9.30;;;5.90;99.90;;;;;;5073865;28;20201;-69
2023/10/05 03:58:46;;;;;;;10.17;8.47;;;5.90;99.90;;;;;;5074941;28;20215;-68
2023/10/05 04:01:13;;;;;;;10.80;8.63;;;5.90;99.90;;;;;;5074898;28;20549;-68
2023/10/05 04:03:40;;;;;;;9.63;8.60;;;5.90;99.90;;;;;;5074836;28;20291;-69
2023/10/05 04:06:17;;;;;;;10.57;8.07;;;5.90;99.90;;;;;;5074806;28;20648;-69
2023/10/05 04:08:45;;;;;;;12.07;8.53;;;5.90;99.90;;;;;;5075143;28;20197;-69
2023/10/05 04:11:12;;;;;;;12.37;8.47;;;5.80;99.90;;;;;;5074828;28;20240;-69
2023/10/05 04:13:39;;;;;;;10.57;8.10;;;5.80;99.90;;;;;;5074556;28;20607;-68
2023/10/05 04:16:13;;;;;;;10.50;7.50;;;6.00;99.90;;;;;;5074523;28;20621;-69
2023/10/05 04:18:40;;;;;;;11.77;8.63;;;6.00;99.90;;;;;;5074906;28;20183;-69
2023/10/05 04:21:06;;;;;;;12.83;8.60;;;6.10;99.90;;;;;;5074710;28;20197;-69
2023/10/05 04:23:33;;;;;;;10.80;8.57;;;6.10;99.90;;;;;;5074742;28;20197;-69
2023/10/05 04:26:01;;;;;;;13.03;8.87;;;6.10;99.90;;;;;;5074595;28;20250;-69
2023/10/05 04:28:32;;;;;;;11.70;8.37;;;6.00;99.90;;;;;;5074510;28;20198;-68
2023/10/05 04:30:59;;;;;;;11.37;8.00;;;6.00;99.90;;;;;;5074177;28;20221;-68
2023/10/05 04:33:28;;;;;;;10.83;8.73;;;5.90;99.90;;;;;;5074476;28;20263;-68
2023/10/05 04:35:55;;;;;;;12.17;7.73;;;6.10;99.90;;;;;;5074356;28;20197;-68
2023/10/05 04:38:25;;;;;;;9.20;7.43;;;6.20;99.90;;;;;;5074320;28;20197;-68
2023/10/05 04:40:52;;;;;;;9.27;7.47;;;6.00;99.90;;;;;;5073963;28;20235;-69
2023/10/05 04:43:19;;;;;;;9.10;7.53;;;6.00;99.90;;;;;;5074171;28;20203;-69
2023/10/05 04:45:47;;;;;;;9.53;7.20;;;6.00;99.90;;;;;;5074315;28;20235;-69
2023/10/05 04:48:13;;;;;;;10.43;7.37;;;6.00;99.90;;;;;;5074444;28;20197;-69
2023/10/05 04:50:42;;;;;;;10.20;7.67;;;6.00;99.90;;;;;;5074041;28;20220;-69
2023/10/05 04:53:11;;;;;;;8.97;7.30;;;6.00;99.90;;;;;;5074052;28;20197;-68
2023/10/05 04:55:42;;;;;;;7.97;7.13;;;6.00;99.90;;;;;;5073903;28;20193;-68
2023/10/05 04:58:31;;;;;;;9.60;7.13;;;6.00;99.90;;;;;;5073851;28;20296;-68
2023/10/05 05:03:55;;;;;;;9.90;7.80;;;6.10;99.90;;;;;;5073293;28;20251;-68
2023/10/05 05:06:25;;;;;;;11.20;7.80;;;6.10;99.90;;;;;;5073583;28;20200;-68
2023/10/05 05:08:53;;;;;;;10.07;8.10;;;6.10;99.90;;;;;;5073367;28;20248;-68
2023/10/05 05:11:20;;;;;;;11.27;8.27;;;6.20;99.90;;;;;;5073630;28;20320;-68
2023/10/05 05:13:48;;;;;;;14.47;9.27;;;6.30;99.90;;;;;;5073515;28;20599;-68
2023/10/05 05:16:15;;;;;;;10.90;9.37;;;6.20;99.90;;;;;;5073764;28;20208;-68
2023/10/05 05:18:42;;;;;;;10.83;9.13;;;6.30;99.90;;;;;;5073233;28;20205;-68
2023/10/05 05:21:11;;;;;;;11.83;9.13;;;6.20;99.90;;;;;;5073534;28;20201;-69
2023/10/05 05:23:40;;;;;;;12.93;9.50;;;6.40;99.90;;;;;;5073514;28;20201;-69
2023/10/05 05:26:10;;;;;;;11.10;8.90;;;6.40;99.90;;;;;;5073277;28;20239;-68
2023/10/05 05:28:38;;;;;;;12.63;8.93;;;6.40;99.90;;;;;;5073466;28;20287;-68
2023/10/05 05:31:07;;;;;;;10.30;8.27;;;6.40;99.90;;;;;;5072906;28;20295;-68
2023/10/05 05:33:36;;;;;;;10.87;8.80;;;6.50;99.90;;;;;;5073117;28;20202;-68
2023/10/05 05:36:07;;;;;;;13.03;8.67;;;6.50;99.90;;;;;;5073139;28;20209;-69
2023/10/05 05:38:34;;;;;;;10.67;8.33;;;6.50;99.90;;;;;;5073142;28;20201;-68
2023/10/05 05:41:09;;;;;;;10.90;9.10;;;6.60;99.90;;;;;;5072976;28;20236;-68
2023/10/05 05:43:36;;;;;;;8.73;7.83;;;6.70;99.90;;;;;;5073212;28;20201;-68
2023/10/05 05:46:04;;;;;;;12.60;9.07;;;6.80;99.90;;;;;;5072676;28;20205;-69
2023/10/05 05:48:31;;;;;;;12.03;7.90;;;6.90;99.90;;;;;;5077687;28;20184;-70
2023/10/05 05:51:04;;;;;;;11.20;8.00;;;6.90;99.90;;;;;;5075224;28;20316;-68
2023/10/05 05:53:31;;;;;;;11.40;9.20;;;6.90;99.90;;;;;;5072603;28;20291;-68
2023/10/05 05:56:01;;;;;;;11.20;8.40;;;7.00;99.90;;;;;;5072701;28;20201;-68
2023/10/05 05:58:28;;;;;;;11.73;8.03;;;7.00;99.90;;;;;;5072691;28;20679;-68
2023/10/05 06:00:57;;;;;;;13.13;8.73;;;7.10;99.90;;;;;;5073016;28;20255;-69
2023/10/05 06:03:24;;;;;;;12.97;8.77;;;7.10;99.90;;;;;;5072798;28;20197;-69
2023/10/05 06:05:51;;;;;;;14.17;8.57;;;7.30;99.90;;;;;;5072576;28;20620;-68
2023/10/05 06:08:18;;;;;;;10.43;8.37;;;7.30;99.90;;;;;;5072410;28;20204;-69
2023/10/05 06:10:46;;;;;;;11.63;8.47;;;7.40;99.90;;;;;;5072388;28;20223;-69
2023/10/05 06:13:13;;;;;;;10.17;8.27;;;7.40;99.90;;;;;;5072576;28;20247;-69
2023/10/05 06:15:41;;;;;;;11.17;7.80;;;7.40;99.90;;;;;;5072477;28;20643;-69
2023/10/05 06:18:08;;;;;;;14.43;8.00;;;7.40;99.90;;;;;;5072601;28;20204;-70
2023/10/05 06:20:35;;;;;;;13.67;7.90;;;7.50;99.90;;;;;;5071818;28;20209;-69
2023/10/05 06:23:02;;;;;;;17.17;8.27;;;7.50;99.90;;;;;;5072581;28;20307;-68
2023/10/05 06:25:29;;;;;;;11.60;8.30;;;7.60;99.90;;;;;;5072265;28;20261;-68
2023/10/05 06:27:56;;;;;;;10.37;7.73;;;7.60;99.90;;;;;;5072564;28;20254;-68
2023/10/05 06:30:23;;;;;;;13.70;8.23;;;7.80;99.90;;;;;;5072536;28;20223;-68
2023/10/05 06:32:53;;;;;;;17.10;9.63;;;7.90;99.90;;;;;;5072571;28;20251;-68
2023/10/05 06:35:21;;;;;;;16.17;8.37;;;8.00;99.90;;;;;;5072490;28;20199;-68
2023/10/05 06:37:49;;;;;;;11.50;8.53;;;8.20;99.90;;;;;;5072337;28;20232;-68
2023/10/05 06:40:21;;;;;;;15.07;8.03;;;8.40;99.90;;;;;;5072354;28;20288;-68
2023/10/05 06:42:49;;;;;;;9.87;7.17;;;8.60;99.90;;;;;;5072633;28;20197;-68
2023/10/05 06:45:17;;;;;;;15.80;6.97;;;8.80;99.90;;;;;;5072171;28;20197;-68
2023/10/05 06:47:44;;;;;;;9.07;7.27;;;9.00;99.90;;;;;;5058918;28;20198;-68
2023/10/05 06:50:12;;;;;;;10.17;7.47;;;9.20;99.90;;;;;;5052231;28;20204;-68
2023/10/05 06:52:41;;;;;;;8.80;6.50;;;9.30;99.90;;;;;;5052009;28;20209;-68
2023/10/05 06:55:09;;;;;;;11.90;6.33;;;9.40;99.90;;;;;;5052276;28;20194;-69
2023/10/05 06:57:36;;;;;;;8.50;6.10;;;9.60;99.90;;;;;;5052075;28;20695;-69
2023/10/05 07:00:11;;;;;;;8.77;6.57;;;9.60;99.90;;;;;;5052158;28;20209;-68
2023/10/05 07:02:38;;;;;;;12.73;6.57;;;9.70;99.90;;;;;;5052204;28;20201;-70
2023/10/05 07:05:06;;;;;;;9.93;6.63;;;9.80;99.90;;;;;;5052034;28;20194;-69
2023/10/05 07:07:34;;;;;;;11.17;6.03;;;9.90;99.90;;;;;;5052249;28;20205;-69
2023/10/05 07:10:03;;;;;;;9.03;6.50;;;10.00;99.90;;;;;;5052315;28;20206;-69
2023/10/05 07:12:30;;;;;;;10.80;6.67;;;10.00;99.90;;;;;;5052252;28;20713;-68
2023/10/05 07:14:57;;;;;;;11.57;7.10;;;10.10;99.90;;;;;;5052209;28;20201;-68
2023/10/05 07:17:26;;;;;;;9.30;6.60;;;10.00;99.90;;;;;;5051932;28;20575;-68
2023/10/05 07:19:53;;;;;;;9.07;6.33;;;10.10;99.90;;;;;;5052273;28;20223;-68
2023/10/05 07:22:21;;;;;;;9.07;6.10;;;10.10;99.90;;;;;;5052055;28;20727;-69
2023/10/05 07:24:49;;;;;;;9.23;6.63;;;10.10;99.90;;;;;;5052149;28;20206;-70
2023/10/05 07:27:15;;;;;;;11.63;6.47;;;10.20;99.90;;;;;;5052074;28;20202;-69
2023/10/05 07:29:44;;;;;;;10.37;7.47;;;10.30;99.90;;;;;;5052110;28;20201;-68
2023/10/05 07:32:12;;;;;;;10.43;6.40;;;10.40;99.90;;;;;;5054977;28;20747;-68
2023/10/05 07:34:39;;;;;;;10.57;5.93;;;10.50;99.90;;;;;;5055733;28;20205;-69
2023/10/05 07:37:06;;;;;;;11.83;7.90;;;10.60;99.90;;;;;;5055680;28;20233;-70
2023/10/05 07:39:34;;;;;;;11.07;6.63;;;10.70;99.90;;;;;;5055376;28;20244;-68
2023/10/05 07:42:02;;;;;;;9.77;6.23;;;10.90;99.90;;;;;;5069830;28;20240;-67
2023/10/05 07:44:29;;;;;;;11.33;6.57;;;11.00;99.90;;;;;;5075181;28;20251;-68
2023/10/05 07:46:55;;;;;;;11.37;6.23;;;11.20;99.90;;;;;;5075089;28;20197;-72
2023/10/05 07:49:22;;;;;;;8.50;6.00;;;11.30;99.90;;;;;;5075338;28;20204;-69
2023/10/05 07:51:49;;;;;;;9.47;6.00;;;11.40;99.90;;;;;;5074983;28;20692;-68
2023/10/05 07:54:16;;;;;;;9.57;5.80;;;11.50;99.90;;;;;;5075087;28;20251;-68
2023/10/05 07:56:42;;;;;;;11.47;5.20;;;11.70;99.90;;;;;;5075160;28;20204;-69
2023/10/05 07:59:10;;;;;;;10.37;5.83;;;11.70;99.90;;;;;;5074994;28;20247;-69
2023/10/05 08:01:38;;;;;;;12.57;5.87;;;11.90;99.90;;;;;;5075103;28;20655;-69
2023/10/05 08:04:05;;;;;;;15.33;6.00;;;12.10;99.90;;;;;;5075347;28;20204;-69
2023/10/05 08:06:31;;;;;;;9.33;5.97;;;12.30;99.90;;;;;;5074936;28;20255;-69
2023/10/05 08:08:58;;;;;;;10.93;5.63;;;12.40;99.90;;;;;;5075110;28;20252;-70
2023/10/05 08:11:24;;;;;;;9.83;4.97;;;12.50;99.90;;;;;;5075856;28;20221;-71
2023/10/05 08:13:52;;;;;;;8.37;5.23;;;12.50;99.90;;;;;;5075554;28;20205;-71
2023/10/05 08:16:22;;;;;;;7.90;4.93;;;12.60;99.90;;;;;;5074904;28;20270;-70
2023/10/05 08:18:49;;;;;;;8.23;4.80;;;12.80;99.90;;;;;;5074607;28;20652;-70
2023/10/05 08:21:15;;;;;;;10.17;5.60;;;12.70;99.90;;;;;;5074541;28;20541;-70
2023/10/05 08:23:43;;;;;;;9.20;6.63;;;12.90;99.90;;;;;;5074749;28;20288;-69
2023/10/05 08:26:09;;;;;;;10.37;6.10;;;13.10;99.90;;;;;;5074357;28;20201;-69
2023/10/05 08:28:36;;;;;;;10.87;5.40;;;13.40;99.90;;;;;;5074527;28;20193;-69
2023/10/05 08:31:06;;;;;;;6.60;5.17;;;13.60;99.90;;;;;;5074537;28;20284;-70
2023/10/05 08:33:34;;;;;;;14.83;6.97;;;13.70;99.90;;;;;;5074665;28;20205;-70
2023/10/05 08:36:06;;;;;;;9.93;5.03;;;14.20;99.90;;;;;;5074491;28;20267;-69
2023/10/05 08:38:33;;;;;;;7.93;5.00;;;14.40;99.90;;;;;;5073248;28;20251;-69
2023/10/05 08:41:07;;;;;;;12.17;5.60;;;14.40;99.90;;;;;;5070553;28;20229;-70
2023/10/05 08:43:35;;;;;;;13.40;4.90;;;14.70;99.90;;;;;;5069997;28;20203;-69
2023/10/05 08:46:07;;;;;;;12.27;5.50;;;14.30;99.90;;;;;;5070926;28;20208;-69
2023/10/05 08:48:35;;;;;;;10.07;5.43;;;14.50;99.90;;;;;;5070826;28;20232;-69
2023/10/05 08:51:09;;;;;;;9.87;5.60;;;14.40;99.90;;;;;;5070619;28;20229;-70
2023/10/05 08:53:41;;;;;;;16.13;5.07;;;14.60;99.90;;;;;;5070621;28;20253;-69
2023/10/05 08:56:12;;;;;;;10.25;4.82;;;15.20;99.90;;;;;;5070320;28;20588;-70
2023/10/05 08:58:41;;;;;;;8.35;4.55;;;15.80;99.90;;;;;;5070668;28;20621;-69
2023/10/05 09:01:23;;;;;;;7.47;4.82;;;16.40;99.90;;;;;;5070538;28;20197;-69
2023/10/05 09:04:01;;;;;;;7.22;4.68;;;16.70;99.90;;;;;;5070390;28;20224;-70
2023/10/05 09:06:28;;;;;;;9.73;5.93;;;16.20;99.90;;;;;;5070231;28;20938;-70
2023/10/05 09:09:01;;;;;;;13.70;6.38;;;15.90;99.90;;;;;;5070064;28;20212;-69
2023/10/05 09:11:31;;;;;;;12.73;5.65;;;15.90;99.90;;;;;;5070142;28;20259;-69
2023/10/05 09:14:12;;;;;;;10.88;6.22;;;15.80;99.90;;;;;;5071039;28;20560;-70
2023/10/05 09:16:43;;;;;;;12.38;6.43;;;15.50;99.90;;;;;;5073718;28;20197;-69
2023/10/05 09:19:15;;;;;;;11.93;5.95;;;15.30;99.90;;;;;;5074232;28;20664;-69
2023/10/05 09:21:50;;;;;;;13.73;6.03;;;15.30;99.90;;;;;;5074441;28;20260;-70
2023/10/05 09:24:20;;;;;;;17.25;6.20;;;15.30;99.90;;;;;;5073140;28;20710;-69
2023/10/05 09:26:51;;;;;;;12.43;6.45;;;15.30;99.90;;;;;;5073097;28;20197;-69
2023/10/05 09:29:22;;;;;;;15.35;5.85;;;15.50;99.90;;;;;;5073149;28;20675;-69
2023/10/05 09:31:53;;;;;;;12.57;6.32;;;15.40;99.90;;;;;;5072900;28;20557;-69
2023/10/05 09:34:37;;;;;;;15.30;6.22;;;15.60;99.90;;;;;;5073144;28;20200;-69
2023/10/05 09:37:05;;;;;;;13.38;6.47;;;15.80;99.90;;;;;;5073004;28;20319;-69
2023/10/05 09:39:37;;;;;;;15.18;6.25;;;15.60;99.90;;;;;;5072976;28;20744;-69
2023/10/05 09:42:05;;;;;;;16.00;6.40;;;15.60;99.90;;;;;;5072461;28;20287;-69
2023/10/05 09:44:33;;;;;;;14.05;5.82;;;15.90;99.90;;;;;;5073036;28;20204;-69
2023/10/05 09:47:03;;;;;;;10.85;5.60;;;16.40;99.90;;;;;;5072179;28;20258;-69
2023/10/05 09:49:34;;;;;;;9.85;5.20;;;16.90;99.90;;;;;;5072294;28;20243;-70
2023/10/05 09:52:01;;;;;;;12.35;6.50;;;17.50;99.90;;;;;;5073378;28;20228;-69
2023/10/05 09:54:28;;;;;;;10.40;5.80;;;17.10;99.90;;;;;;5073109;28;20200;-69
2023/10/05 09:56:55;;;;;;;11.45;6.22;;;17.50;99.90;;;;;;5072850;28;20199;-69
2023/10/05 09:59:25;;;;;;;11.43;6.38;;;18.10;99.90;;;;;;5072913;28;20600;-69
2023/10/05 10:01:53;;;;;;;11.80;6.55;;;18.20;99.90;;;;;;5072978;28;20199;-69
2023/10/05 10:04:35;;;;;;;11.55;6.43;;;18.70;99.90;;;;;;5072763;28;20200;-69
2023/10/05 10:07:13;;;;;;;12.75;6.72;;;18.90;99.90;;;;;;5072933;28;20220;-69
2023/10/05 10:09:41;;;;;;;12.50;6.55;;;18.70;99.90;;;;;;5072924;28;20631;-68
2023/10/05 10:12:11;;;;;;;15.30;7.55;;;18.60;99.90;;;;;;5072602;28;20225;-69
2023/10/05 10:14:41;;;;;;;12.43;7.10;;;18.50;98.70;;;;;;5072973;28;20204;-69
2023/10/05 10:17:24;;;;;;;14.43;7.03;;;18.20;98.80;;;;;;5072858;28;20280;-69
2023/10/05 10:20:05;;;;;;;11.95;7.82;;;17.90;98.80;;;;;;5072868;28;20204;-69
2023/10/05 10:22:47;;;;;;;16.17;7.72;;;18.30;96.70;;;;;;5072687;28;20668;-69
2023/10/05 10:25:28;;;;;;;13.40;7.65;;;18.20;98.00;;;;;;5072364;28;20609;-70
2023/10/05 10:28:12;;;;;;;10.65;7.53;;;18.50;97.80;;;;;;5072354;28;20249;-69
2023/10/05 10:30:39;;;;;;;14.27;7.50;;;18.70;97.90;;;;;;5072619;28;20585;-69
2023/10/05 10:33:27;;;;;;;12.88;7.30;;;19.90;96.80;;;;;;5072365;28;20232;-70
2023/10/05 10:35:55;;;;;;;11.45;6.70;;;20.30;95.00;;;;;;5072634;28;20205;-69
2023/10/05 10:38:24;;;;;;;10.80;6.78;;;20.20;94.40;;;;;;5072393;28;20633;-69
2023/10/05 10:41:10;;;;;;;13.68;7.07;;;20.50;93.80;;;;;;5072440;28;20235;-69
2023/10/05 10:43:37;;;;;;;13.63;7.32;;;20.00;92.90;;;;;;5072438;28;20200;-69
2023/10/05 10:46:13;;;;;;;13.13;7.45;;;19.80;92.10;;;;;;5072332;28;20284;-69
2023/10/05 10:48:57;;;;;;;10.40;7.20;;;19.90;92.60;;;;;;5072805;28;20196;-69
2023/10/05 10:51:24;;;;;;;13.45;7.80;;;19.10;93.30;;;;;;5072428;28;20258;-69
2023/10/05 10:53:56;;;;;;;11.57;7.65;;;19.10;93.20;;;;;;5072073;28;20279;-69
2023/10/05 10:56:29;;;;;;;18.17;7.93;;;19.50;92.80;;;;;;5072143;28;20193;-69
2023/10/05 10:59:09;;;;;;;12.90;7.43;;;19.90;91.80;;;;;;5072269;28;20660;-69
2023/10/05 11:01:41;;;;;;;13.80;8.00;;;19.70;92.70;;;;;;5072522;28;20291;-69
2023/10/05 11:04:23;;;;;;;14.20;7.70;;;19.70;91.40;;;;;;5072139;28;20560;-69
2023/10/05 11:06:50;;;;;;;14.77;7.40;;;18.80;92.20;;;;;;5074850;28;20652;-68
2023/10/05 11:09:29;;;;;;;13.43;6.38;;;18.20;93.40;;;;;;5076314;28;20223;-68
2023/10/05 11:12:08;;;;;;;11.73;7.18;;;17.80;93.80;;;;;;5076027;28;20260;-68
2023/10/05 11:14:36;;;;;;;15.88;7.35;;;17.60;94.40;;;;;;5076012;28;20224;-68
2023/10/05 11:17:11;;;;;;;15.25;6.80;;;17.30;95.10;;;;;;5075865;28;20197;-68
2023/10/05 11:19:38;;;;;;;12.00;6.65;;;17.20;95.30;;;;;;5075910;28;20204;-68
2023/10/05 11:22:07;;;;;;;15.23;7.40;;;17.40;95.90;;;;;;5075835;28;20295;-68
2023/10/05 11:24:39;;;;;;;14.45;6.55;;;17.50;94.80;;;;;;5075567;28;20247;-68
2023/10/05 11:27:15;;;;;;;9.57;6.10;;;17.50;94.20;;;;;;5075796;28;20197;-68
2023/10/05 11:29:48;;;;;;;10.48;5.97;;;17.50;94.00;;;;;;5075691;28;20631;-68
2023/10/05 11:32:20;;;;;;;16.50;6.38;;;17.40;93.80;;;;;;5075605;28;20576;-69
2023/10/05 11:34:47;;;;;;;16.80;6.13;;;17.70;94.00;;;;;;5075830;28;20220;-69
2023/10/05 11:37:16;;;;;;;10.90;5.70;;;17.40;94.00;;;;;;5075471;28;20193;-68
2023/10/05 11:39:49;;;;;;;12.57;5.97;;;17.10;93.30;;;;;;5075525;28;20599;-68
2023/10/05 11:42:16;;;;;;;17.88;6.80;;;17.20;94.40;;;;;;5075406;28;20763;-68
2023/10/05 11:44:44;;;;;;;10.25;5.28;;;17.10;95.10;;;;;;5075557;28;20292;-69
2023/10/05 11:47:24;;;;;;;10.93;5.45;;;16.90;94.30;;;;;;5075368;28;20205;-69
2023/10/05 11:49:51;;;;;;;9.38;5.32;;;17.00;94.90;;;;;;5075220;28;20204;-69
2023/10/05 11:52:23;;;;;;;16.02;6.20;;;16.70;94.80;;;;;;5075198;28;20220;-69
2023/10/05 11:54:51;;;;;;;11.57;5.45;;;17.00;95.10;;;;;;5075479;28;20200;-69
2023/10/05 11:57:20;;;;;;;9.60;5.20;;;17.10;94.80;;;;;;5075316;28;20208;-69
2023/10/05 11:59:46;;;;;;;11.90;5.40;;;17.20;94.80;;;;;;5075064;28;20240;-69
2023/10/05 12:02:13;;;;;;;9.48;5.63;;;17.10;94.70;;;;;;5074921;28;20231;-69
2023/10/05 12:04:41;;;;;;;11.43;4.95;;;16.90;95.10;;;;;;5075066;28;20254;-70
2023/10/05 12:07:12;;;;;;;10.25;5.15;;;16.70;96.20;;;;;;5074831;28;20690;-69
2023/10/05 12:09:43;;;;;;;11.10;5.75;;;16.40;95.40;;;;;;5075079;28;20518;-69
2023/10/05 12:12:13;;;;;;;10.02;5.47;;;16.20;95.70;;;;;;5074849;28;20228;-69
2023/10/05 12:14:41;;;;;;;9.50;4.88;;;16.00;95.80;;;;;;5075251;28;20251;-69
2023/10/05 12:17:07;;;;;;;12.00;5.53;;;16.10;96.20;;;;;;5073752;28;20229;-69
2023/10/05 12:19:34;;;;;;;11.50;5.95;;;16.10;96.40;;;;;;5074704;28;20204;-69
2023/10/05 12:22:02;;;;;;;12.25;5.30;;;16.20;96.40;;;;;;5074893;28;20200;-69
2023/10/05 12:24:30;;;;;;;10.05;5.68;;;16.40;96.20;;;;;;5074797;28;20197;-69
2023/10/05 12:26:58;;;;;;;10.25;5.38;;;16.30;96.10;;;;;;5074600;28;20201;-69
2023/10/05 12:29:26;;;;;;;11.02;5.32;;;16.50;96.40;;;;;;5074587;28;20204;-69
2023/10/05 12:31:56;;;;;;;10.48;5.25;;;16.30;96.60;;;;;;5074554;28;20255;-68
2023/10/05 12:34:23;;;;;;;15.57;5.50;;;16.20;96.90;;;;;;5074421;28;20252;-69
2023/10/05 12:36:51;;;;;;;13.57;5.72;;;16.10;96.70;;;;;;5074586;28;20284;-69
2023/10/05 12:39:18;;;;;;;10.63;5.20;;;16.30;96.90;;;;;;5074410;28;20204;-68
2023/10/05 12:41:46;;;;;;;11.52;5.22;;;16.30;96.40;;;;;;5074419;28;20228;-68
2023/10/05 12:44:13;;;;;;;11.20;4.90;;;16.20;96.50;;;;;;5074219;28;20293;-68
2023/10/05 12:46:41;;;;;;;10.32;4.80;;;16.00;96.00;;;;;;5074195;28;20308;-69
2023/10/05 12:49:08;;;;;;;10.10;4.88;;;16.20;96.20;;;;;;5081638;28;20231;-68
2023/10/05 12:51:35;;;;;;;12.95;5.07;;;16.30;96.10;;;;;;5074266;28;20204;-69
2023/10/05 12:54:03;;;;;;;10.05;4.70;;;16.20;96.10;;;;;;5073797;28;20220;-68
2023/10/05 12:56:29;;;;;;;10.25;4.90;;;16.20;96.60;;;;;;5074094;28;20291;-68
2023/10/05 12:58:56;;;;;;;8.93;4.85;;;16.20;96.90;;;;;;5073927;28;20193;-68
2023/10/05 13:01:26;;;;;;;9.85;5.30;;;16.10;96.80;;;;;;5073670;28;20197;-68